createdAt,value
2016-12-20T04:02:29.136Z,1030.13
2016-12-20T04:02:59.739Z,1030.11
2016-12-20T04:03:30.310Z,1030.1
2016-12-20T04:04:00.846Z,1030.06
2016-12-20T04:04:31.478Z,1030.04
2016-12-20T04:05:02.021Z,1030.06
2016-12-20T04:05:32.580Z,1030.01
2016-12-20T04:06:03.266Z,1030.05
2016-12-20T04:06:33.821Z,1030.03
2016-12-20T04:07:04.404Z,1030
2016-12-20T04:07:34.979Z,1030.01
2016-12-20T04:08:05.538Z,1030.04
2016-12-20T04:08:36.311Z,1030.05
2016-12-20T04:09:06.901Z,1030.01
2016-12-20T04:09:37.467Z,1030.01
2016-12-20T04:10:08.040Z,1030
2016-12-20T04:10:38.598Z,1029.98
2016-12-20T04:11:09.195Z,1029.97
2016-12-20T04:11:39.832Z,1029.95
2016-12-20T04:12:10.343Z,1029.92
2016-12-20T04:12:40.923Z,1029.93
2016-12-20T04:13:11.498Z,1029.92
2016-12-20T04:13:42.069Z,1029.91
2016-12-20T04:14:12.654Z,1029.92
2016-12-20T04:14:43.210Z,1029.89
2016-12-20T04:15:13.760Z,1029.89
2016-12-20T04:15:44.349Z,1029.92
2016-12-20T04:16:14.903Z,1029.91
2016-12-20T04:16:45.561Z,1029.95
2016-12-20T04:17:16.203Z,1029.96
2016-12-20T04:17:46.755Z,1029.92
2016-12-20T04:18:17.333Z,1029.92
2016-12-20T04:18:47.960Z,1029.95
2016-12-20T04:19:18.469Z,1029.99
2016-12-20T04:19:49.051Z,1030.01
2016-12-20T04:20:19.624Z,1029.95
2016-12-20T04:20:50.221Z,1029.94
2016-12-20T04:21:20.797Z,1029.96
2016-12-20T04:21:51.363Z,1030
2016-12-20T04:22:21.928Z,1029.99
2016-12-20T04:22:52.528Z,1029.97
2016-12-20T04:23:23.086Z,1030.02
2016-12-20T04:23:53.630Z,1030.03
2016-12-20T04:24:24.253Z,1030.03
2016-12-20T04:24:54.829Z,1030.03
2016-12-20T04:25:25.437Z,1030.06
2016-12-20T04:25:56.010Z,1029.97
2016-12-20T04:26:26.592Z,1030.01
2016-12-20T04:26:57.157Z,1030.06
2016-12-20T04:27:27.763Z,1030.05
2016-12-20T04:27:58.331Z,1030.02
2016-12-20T04:28:28.883Z,1030.05
2016-12-20T04:28:59.459Z,1030.07
2016-12-20T04:29:30.045Z,1030.04
2016-12-20T04:30:36.755Z,1030.05
2016-12-20T04:31:07.326Z,1030.06
2016-12-20T04:31:37.908Z,1030.06
2016-12-20T04:32:08.476Z,1030.06
2016-12-20T04:32:39.046Z,1029.96
2016-12-20T04:33:09.624Z,1030
2016-12-20T04:33:40.166Z,1029.95
2016-12-20T04:34:10.770Z,1029.99
2016-12-20T04:34:41.335Z,1029.98
2016-12-20T04:35:11.900Z,1029.9
2016-12-20T04:35:42.550Z,1029.95
2016-12-20T04:36:13.099Z,1029.92
2016-12-20T04:36:43.845Z,1029.96
2016-12-20T04:37:14.472Z,1029.9
2016-12-20T04:37:45.025Z,1029.91
2016-12-20T04:38:15.644Z,1029.89
2016-12-20T04:38:46.354Z,1029.87
2016-12-20T04:39:16.899Z,1029.88
2016-12-20T04:39:47.469Z,1029.91
2016-12-20T04:40:18.731Z,1029.84
2016-12-20T04:40:49.393Z,1029.87
2016-12-20T04:41:19.992Z,1029.84
2016-12-20T04:41:50.659Z,1029.79
2016-12-20T04:42:21.237Z,1029.76
2016-12-20T04:42:51.853Z,1029.79
2016-12-20T04:43:22.408Z,1029.73
2016-12-20T04:43:52.979Z,1029.74
2016-12-20T04:44:23.584Z,1029.69
2016-12-20T04:44:54.182Z,1029.71
2016-12-20T04:45:24.743Z,1029.66
2016-12-20T04:45:55.316Z,1029.68
2016-12-20T04:46:25.873Z,1029.7
2016-12-20T04:46:56.445Z,1029.63
2016-12-20T04:47:27.218Z,1029.66
2016-12-20T04:47:57.771Z,1029.68
2016-12-20T04:48:28.341Z,1029.66
2016-12-20T04:48:58.912Z,1029.63
2016-12-20T04:49:29.480Z,1029.64
2016-12-20T04:50:00.060Z,1029.62
2016-12-20T04:50:30.606Z,1029.59
2016-12-20T04:51:01.184Z,1029.59
2016-12-20T04:51:31.747Z,1029.58
2016-12-20T04:52:02.319Z,1029.6
2016-12-20T04:52:32.902Z,1029.55
2016-12-20T04:53:03.477Z,1029.61
2016-12-20T04:53:34.045Z,1029.54
2016-12-20T04:54:04.628Z,1029.58
2016-12-20T04:54:35.189Z,1029.58
2016-12-20T04:55:05.784Z,1029.52
2016-12-20T04:55:36.373Z,1029.56
2016-12-20T04:56:06.941Z,1029.53
2016-12-20T04:56:37.513Z,1029.51
2016-12-20T04:57:08.080Z,1029.52
2016-12-20T04:57:38.716Z,1029.48
2016-12-20T04:58:09.277Z,1029.49
2016-12-20T04:58:39.939Z,1029.47
2016-12-20T04:59:10.499Z,1029.48
2016-12-20T04:59:41.067Z,1029.5
2016-12-20T05:00:11.630Z,1029.51
2016-12-20T05:00:42.184Z,1029.51
2016-12-20T05:01:12.757Z,1029.5
2016-12-20T05:01:43.318Z,1029.5
2016-12-20T05:02:13.905Z,1029.5
2016-12-20T05:02:44.472Z,1029.48
2016-12-20T05:03:15.036Z,1029.5
2016-12-20T05:03:45.593Z,1029.49
2016-12-20T05:04:16.167Z,1029.44
2016-12-20T05:04:46.736Z,1029.47
2016-12-20T05:05:17.341Z,1029.49
2016-12-20T05:05:47.888Z,1029.52
2016-12-20T05:06:18.493Z,1029.47
2016-12-20T05:06:49.094Z,1029.49
2016-12-20T05:07:19.659Z,1029.48
2016-12-20T05:07:50.217Z,1029.52
2016-12-20T05:08:20.881Z,1029.5
2016-12-20T05:08:51.446Z,1029.54
2016-12-20T05:09:22.015Z,1029.53
2016-12-20T05:09:52.582Z,1029.54
2016-12-20T05:10:23.153Z,1029.52
2016-12-20T05:10:53.730Z,1029.5
2016-12-20T05:11:24.348Z,1029.53
2016-12-20T05:11:55.006Z,1029.49
2016-12-20T05:12:25.681Z,1029.5
2016-12-20T05:12:56.459Z,1029.49
2016-12-20T05:13:27.035Z,1029.48
2016-12-20T05:13:57.643Z,1029.44
2016-12-20T05:14:28.313Z,1029.44
2016-12-20T05:14:58.934Z,1029.43
2016-12-20T05:15:29.484Z,1029.4
2016-12-20T05:16:00.065Z,1029.41
2016-12-20T05:16:30.588Z,1029.4
2016-12-20T05:17:01.185Z,1029.34
2016-12-20T05:17:31.769Z,1029.31
2016-12-20T05:18:02.380Z,1029.33
2016-12-20T05:18:32.987Z,1029.34
2016-12-20T05:19:03.606Z,1029.31
2016-12-20T05:19:34.246Z,1029.32
2016-12-20T05:20:04.825Z,1029.31
2016-12-20T05:20:35.502Z,1029.28
2016-12-20T05:21:06.108Z,1029.32
2016-12-20T05:21:36.707Z,1029.27
2016-12-20T05:22:07.374Z,1029.27
2016-12-20T05:22:38.240Z,1029.31
2016-12-20T05:23:08.781Z,1029.32
2016-12-20T05:23:39.414Z,1029.27
2016-12-20T05:24:10.057Z,1029.26
2016-12-20T06:00:45.259Z,1028.9
2016-12-20T06:01:15.824Z,1028.86
2016-12-20T06:03:28.280Z,1028.88
2016-12-20T06:03:58.835Z,1028.79
2016-12-20T06:04:29.409Z,1028.79
2016-12-20T06:04:59.984Z,1028.81
2016-12-20T06:05:30.550Z,1028.79
2016-12-20T06:06:01.101Z,1028.78
2016-12-20T06:06:31.630Z,1028.81
2016-12-20T06:07:02.264Z,1028.81
2016-12-20T06:07:32.883Z,1028.76
2016-12-20T06:08:03.452Z,1028.82
2016-12-20T06:08:34.062Z,1028.83
2016-12-20T06:09:04.637Z,1028.77
2016-12-20T06:09:35.189Z,1028.77
2016-12-20T06:10:05.780Z,1028.79
2016-12-20T06:10:36.359Z,1028.75
2016-12-20T06:11:06.917Z,1028.76
2016-12-20T06:11:37.472Z,1028.8
2016-12-20T06:12:08.053Z,1028.84
2016-12-20T06:12:38.692Z,1028.84
2016-12-20T06:14:15.885Z,1028.84
2016-12-20T06:14:46.465Z,1028.86
2016-12-20T06:15:17.028Z,1028.87
2016-12-20T06:15:47.613Z,1028.86
2016-12-20T06:16:18.250Z,1028.89
2016-12-20T06:16:48.806Z,1028.91
2016-12-20T06:17:19.389Z,1028.92
2016-12-20T06:17:50.009Z,1028.94
2016-12-20T06:18:20.576Z,1028.9
2016-12-20T06:18:51.149Z,1028.93
2016-12-20T06:19:21.792Z,1028.95
2016-12-20T06:19:52.343Z,1029
2016-12-20T06:20:22.931Z,1028.98
2016-12-20T06:20:53.492Z,1028.98
2016-12-20T06:21:24.060Z,1029.03
2016-12-20T06:21:54.629Z,1029.01
2016-12-20T06:22:25.200Z,1029.01
2016-12-20T06:22:55.758Z,1029.05
2016-12-20T06:23:26.337Z,1029
2016-12-20T06:23:56.893Z,1029
2016-12-20T06:24:27.516Z,1029
2016-12-20T06:24:58.102Z,1028.98
2016-12-20T06:25:28.685Z,1029.01
2016-12-20T06:25:59.282Z,1029.03
2016-12-20T06:26:29.877Z,1028.99
2016-12-20T06:27:00.455Z,1028.98
2016-12-20T06:27:31.017Z,1028.97
2016-12-20T06:28:01.597Z,1028.96
2016-12-20T06:28:32.157Z,1028.96
2016-12-20T06:29:02.796Z,1029.01
2016-12-20T06:29:33.342Z,1028.98
2016-12-20T06:30:03.894Z,1028.95
2016-12-20T06:30:35.183Z,1028.92
2016-12-20T06:31:05.846Z,1028.92
2016-12-20T06:31:36.452Z,1028.91
2016-12-20T06:32:07.001Z,1028.88
2016-12-20T06:32:37.601Z,1028.91
2016-12-20T06:33:08.154Z,1028.85
2016-12-20T06:33:38.755Z,1028.89
2016-12-20T06:34:09.353Z,1028.88
2016-12-20T06:34:39.922Z,1028.85
2016-12-20T06:35:10.478Z,1028.86
2016-12-20T06:35:41.025Z,1028.85
2016-12-20T06:36:11.623Z,1028.86
2016-12-20T06:36:42.152Z,1028.87
2016-12-20T06:37:12.720Z,1028.85
2016-12-20T06:47:18.685Z,1028.97
2016-12-20T06:47:49.219Z,1029.01
2016-12-20T06:48:19.776Z,1029.01
2016-12-20T06:48:50.314Z,1029.04
2016-12-20T06:49:20.864Z,1029.06
2016-12-20T06:49:51.446Z,1029.05
2016-12-20T06:50:22.013Z,1029.04
2016-12-20T06:50:52.640Z,1029.03
2016-12-20T06:51:23.176Z,1029
2016-12-20T06:52:29.779Z,1029.01
2016-12-20T06:53:00.389Z,1029
2016-12-20T06:53:30.931Z,1029.02
2016-12-20T06:54:01.595Z,1029.07
2016-12-20T06:54:32.360Z,1029.06
2016-12-20T06:55:02.802Z,1029.09
2016-12-20T06:55:33.426Z,1029.1
2016-12-20T06:56:03.964Z,1029.06
2016-12-20T06:56:34.514Z,1029.05
2016-12-20T06:57:05.056Z,1029.08
2016-12-20T06:59:04.273Z,1029.05
2016-12-20T06:59:34.846Z,1029.04
2016-12-20T07:01:32.450Z,0
2016-12-20T07:02:02.971Z,0
2016-12-20T07:03:40.541Z,0
2016-12-20T07:04:11.133Z,0
2016-12-20T07:04:41.721Z,0
2016-12-20T07:05:12.325Z,0
2016-12-20T07:05:42.837Z,0
2016-12-20T07:06:13.330Z,0
2016-12-20T07:06:43.960Z,0
2016-12-20T07:07:14.647Z,0
2016-12-20T07:07:45.174Z,0
2016-12-20T07:08:15.683Z,0
2016-12-20T07:08:46.199Z,0
2016-12-20T07:09:16.683Z,0
2016-12-20T07:09:47.198Z,0
2016-12-20T07:10:17.724Z,0
2016-12-20T07:10:48.263Z,0
2016-12-20T07:11:18.776Z,0
2016-12-20T07:11:49.289Z,0
2016-12-20T07:12:19.777Z,0
2016-12-20T07:12:50.280Z,0
2016-12-20T07:13:20.784Z,0
2016-12-20T07:13:51.283Z,0
2016-12-20T07:14:21.789Z,0
2016-12-20T07:15:59.297Z,0
2016-12-20T07:16:29.845Z,0
2016-12-20T07:17:00.424Z,0
2016-12-20T07:17:30.943Z,0
2016-12-20T07:18:01.530Z,0
2016-12-20T07:18:32.090Z,0
2016-12-20T07:19:02.587Z,0
2016-12-20T07:19:33.095Z,0
2016-12-20T07:20:03.706Z,0
2016-12-20T07:20:34.231Z,0
2016-12-20T07:21:04.744Z,0
2016-12-20T07:21:35.261Z,0
2016-12-20T07:22:05.755Z,0
2016-12-20T07:22:36.368Z,0
2016-12-20T07:23:06.901Z,0
2016-12-20T07:23:37.527Z,0
2016-12-20T07:24:08.032Z,0
2016-12-20T07:24:38.562Z,0
2016-12-20T07:25:09.208Z,0
2016-12-20T07:25:39.699Z,0
2016-12-20T07:26:10.232Z,0
2016-12-20T07:26:40.763Z,0
2016-12-20T07:27:11.263Z,0
2016-12-20T07:27:41.771Z,0
2016-12-20T07:28:12.378Z,0
2016-12-20T07:28:42.881Z,0
2016-12-20T07:29:13.483Z,0
2016-12-20T07:29:44.015Z,0
2016-12-20T07:30:14.526Z,0
2016-12-20T07:30:45.076Z,0
2016-12-20T07:31:15.581Z,0
2016-12-20T07:31:46.104Z,0
2016-12-20T07:32:16.605Z,0
2016-12-20T07:32:47.147Z,0
2016-12-20T07:33:17.672Z,0
2016-12-20T07:33:48.183Z,0
2016-12-20T07:34:18.691Z,0
2016-12-20T07:34:49.194Z,0
2016-12-20T07:35:19.713Z,0
2016-12-20T07:35:50.219Z,0
2016-12-20T07:36:20.747Z,0
2016-12-20T07:36:51.412Z,0
2016-12-20T07:37:21.903Z,0
2016-12-20T07:37:52.450Z,0
2016-12-20T07:38:22.962Z,0
2016-12-20T07:38:53.471Z,0
2016-12-20T07:39:23.978Z,0
2016-12-20T07:39:54.476Z,0
2016-12-20T07:40:24.983Z,0
2016-12-20T07:40:55.508Z,0
2016-12-20T07:41:26.005Z,0
2016-12-20T07:41:56.511Z,0
2016-12-20T07:42:27.018Z,0
2016-12-20T07:42:57.659Z,0
2016-12-20T07:43:28.157Z,0
2016-12-20T07:43:58.658Z,0
2016-12-20T07:44:29.331Z,0
2016-12-20T07:44:59.845Z,0
2016-12-20T07:45:30.365Z,0
2016-12-20T07:46:00.880Z,0
2016-12-20T07:46:31.413Z,0
2016-12-20T07:47:01.914Z,0
2016-12-20T07:47:32.413Z,0
2016-12-20T07:48:02.949Z,0
2016-12-20T07:48:33.481Z,0
2016-12-20T07:49:04.193Z,0
2016-12-20T07:49:34.704Z,0
2016-12-20T07:50:05.220Z,0
2016-12-20T07:50:35.739Z,0
2016-12-20T07:51:06.251Z,0
2016-12-20T07:51:36.755Z,0
2016-12-20T07:52:07.284Z,0
2016-12-20T07:52:37.896Z,0
2016-12-20T07:53:08.406Z,0
2016-12-20T07:53:38.925Z,0
2016-12-20T07:54:09.589Z,0
2016-12-20T07:54:40.181Z,0
2016-12-20T07:55:10.688Z,0
2016-12-20T07:55:41.269Z,0
2016-12-20T07:56:11.821Z,0
2016-12-20T07:56:42.346Z,0
2016-12-20T07:57:12.850Z,0
2016-12-20T07:57:43.369Z,0
2016-12-20T07:58:13.870Z,0
2016-12-20T07:58:44.426Z,0
2016-12-20T07:59:14.954Z,0
2016-12-20T07:59:45.473Z,0
2016-12-20T08:00:16.045Z,0
2016-12-20T08:00:46.544Z,0
2016-12-20T08:01:17.043Z,0
2016-12-20T08:01:47.599Z,0
2016-12-20T08:02:18.150Z,0
2016-12-20T08:02:48.689Z,0
2016-12-20T08:03:19.213Z,0
2016-12-20T08:03:49.706Z,0
2016-12-20T08:04:20.217Z,0
2016-12-20T08:04:50.816Z,0
2016-12-20T08:05:21.310Z,0
2016-12-20T08:05:51.857Z,0
2016-12-20T08:06:22.331Z,0
2016-12-20T08:06:52.860Z,0
2016-12-20T08:07:23.513Z,0
2016-12-20T08:07:54.009Z,0
2016-12-20T08:08:24.511Z,0
2016-12-20T08:08:55.115Z,0
2016-12-20T08:09:25.663Z,0
2016-12-20T08:09:56.182Z,0
2016-12-20T08:10:26.713Z,0
2016-12-20T08:10:57.195Z,0
2016-12-20T08:11:27.712Z,0
2016-12-20T08:11:58.323Z,0
2016-12-20T08:12:28.849Z,0
2016-12-20T08:12:59.501Z,0
2016-12-20T08:13:30.047Z,0
2016-12-20T08:14:00.591Z,0
2016-12-20T08:14:31.190Z,0
2016-12-20T08:15:01.831Z,0
2016-12-20T08:15:32.329Z,0
2016-12-20T08:16:02.932Z,0
2016-12-20T08:16:33.550Z,0
2016-12-20T08:17:04.094Z,0
2016-12-20T08:17:34.628Z,0
2016-12-20T08:18:05.176Z,0
2016-12-20T08:18:35.662Z,0
2016-12-20T08:19:06.196Z,0
2016-12-20T08:19:36.735Z,0
2016-12-20T08:20:07.258Z,0
2016-12-20T08:20:37.771Z,0
2016-12-20T08:21:08.306Z,0
2016-12-20T08:21:38.814Z,0
2016-12-20T08:22:09.326Z,0
2016-12-20T08:22:39.856Z,0
2016-12-20T08:23:10.464Z,0
2016-12-20T08:23:40.970Z,0
2016-12-20T08:24:11.536Z,0
2016-12-20T08:24:42.039Z,0
2016-12-20T08:25:12.541Z,0
2016-12-20T08:25:43.045Z,0
2016-12-20T08:26:13.539Z,0
2016-12-20T08:26:44.058Z,0
2016-12-20T08:27:14.575Z,0
2016-12-20T08:27:45.149Z,0
2016-12-20T08:28:15.779Z,0
2016-12-20T08:28:46.342Z,0
2016-12-20T08:29:16.839Z,0
2016-12-20T08:29:47.374Z,0
2016-12-20T08:30:17.902Z,0
2016-12-20T08:30:48.373Z,0
2016-12-20T08:31:18.884Z,0
2016-12-20T08:31:49.404Z,0
2016-12-20T08:32:19.942Z,0
2016-12-20T08:32:50.955Z,0
2016-12-20T08:33:21.046Z,0
2016-12-20T08:33:51.552Z,0
2016-12-20T08:34:22.048Z,0
2016-12-20T08:34:52.552Z,0
2016-12-20T08:35:23.058Z,0
2016-12-20T08:35:53.663Z,0
2016-12-20T08:36:24.376Z,0
2016-12-20T08:36:54.908Z,0
2016-12-20T08:37:25.414Z,0
2016-12-20T08:37:55.934Z,0
2016-12-20T08:38:26.552Z,0
2016-12-20T08:38:57.129Z,0
2016-12-20T08:39:27.621Z,0
2016-12-20T08:39:58.131Z,0
2016-12-20T08:40:28.645Z,0
2016-12-20T08:40:59.154Z,0
2016-12-20T08:42:42.694Z,0
2016-12-20T08:43:13.218Z,0
2016-12-20T08:43:43.719Z,0
2016-12-20T08:44:14.228Z,0
2016-12-20T08:44:44.741Z,0
2016-12-20T08:45:15.251Z,0
2016-12-20T08:45:45.736Z,0
2016-12-20T08:46:16.311Z,0
2016-12-20T08:46:46.841Z,0
2016-12-20T08:47:17.366Z,0
2016-12-20T08:47:47.895Z,0
2016-12-20T08:48:18.403Z,0
2016-12-20T08:48:49.047Z,0
2016-12-20T08:49:19.613Z,0
2016-12-20T08:49:50.191Z,0
2016-12-20T08:50:20.708Z,0
2016-12-20T08:50:51.239Z,0
2016-12-20T08:51:21.763Z,0
2016-12-20T08:51:52.251Z,0
2016-12-20T08:52:22.751Z,0
2016-12-20T08:52:53.362Z,0
2016-12-20T08:53:23.916Z,0
2016-12-20T08:53:54.534Z,0
2016-12-20T08:54:25.036Z,0
2016-12-20T08:54:55.567Z,0
2016-12-20T08:55:26.169Z,0
2016-12-20T08:55:56.721Z,0
2016-12-20T08:56:27.218Z,0
2016-12-20T08:56:57.751Z,0
2016-12-20T08:57:28.340Z,0
2016-12-20T08:57:58.835Z,0
2016-12-20T08:58:29.390Z,0
2016-12-20T08:58:59.991Z,0
2016-12-20T08:59:30.528Z,0
2016-12-20T09:00:01.082Z,0
2016-12-20T09:00:31.684Z,0
2016-12-20T09:01:02.331Z,0
2016-12-20T09:01:32.845Z,0
2016-12-20T09:02:03.339Z,0
2016-12-20T09:02:33.844Z,0
2016-12-20T09:03:40.860Z,0
2016-12-20T09:04:11.362Z,0
2016-12-20T09:04:41.850Z,0
2016-12-20T09:05:12.468Z,0
2016-12-20T09:05:42.958Z,0
2016-12-20T09:06:13.614Z,0
2016-12-20T09:06:44.196Z,0
2016-12-20T09:07:14.713Z,0
2016-12-20T09:07:45.223Z,0
2016-12-20T09:08:15.743Z,0
2016-12-20T09:08:46.260Z,0
2016-12-20T09:09:16.767Z,0
2016-12-20T09:09:47.271Z,0
2016-12-20T09:10:17.836Z,0
2016-12-20T09:10:48.435Z,0
2016-12-20T09:11:18.936Z,0
2016-12-20T09:11:49.426Z,0
2016-12-20T09:12:20.081Z,0
2016-12-20T09:12:50.622Z,0
2016-12-20T09:13:21.143Z,0
2016-12-20T09:13:51.724Z,0
2016-12-20T09:14:22.229Z,0
2016-12-20T09:14:52.733Z,0
2016-12-20T09:15:23.248Z,0
2016-12-20T09:15:53.743Z,0
2016-12-20T09:16:24.388Z,0
2016-12-20T09:18:01.933Z,0
2016-12-20T09:18:32.435Z,0
2016-12-20T09:19:02.931Z,0
2016-12-20T09:19:33.463Z,0
2016-12-20T09:20:04.001Z,0
2016-12-20T09:20:34.598Z,0
2016-12-20T09:21:05.121Z,0
2016-12-20T09:21:35.709Z,0
2016-12-20T09:22:06.244Z,0
2016-12-20T09:22:36.772Z,0
2016-12-20T09:23:07.372Z,0
2016-12-20T09:23:37.879Z,0
2016-12-20T09:24:08.408Z,0
2016-12-20T09:24:38.892Z,0
2016-12-20T09:25:09.410Z,0
2016-12-20T09:25:39.937Z,0
2016-12-20T09:26:10.527Z,0
2016-12-20T09:26:41.033Z,0
2016-12-20T09:27:11.550Z,0
2016-12-20T09:28:18.640Z,0
2016-12-20T09:28:49.265Z,0
2016-12-20T09:29:19.822Z,0
2016-12-20T09:29:50.355Z,0
2016-12-20T09:30:20.923Z,0
2016-12-20T09:31:28.043Z,0
2016-12-20T09:31:58.699Z,0
2016-12-20T09:32:29.215Z,0
2016-12-20T09:32:59.699Z,0
2016-12-20T09:33:30.213Z,0
2016-12-20T09:34:00.717Z,0
2016-12-20T09:34:31.233Z,0
2016-12-20T09:35:01.727Z,0
2016-12-20T09:35:32.350Z,0
2016-12-20T09:36:02.861Z,0
2016-12-20T09:36:33.375Z,0
2016-12-20T09:37:04.001Z,0
2016-12-20T09:37:34.492Z,0
2016-12-20T09:38:05.064Z,0
2016-12-20T09:38:35.610Z,0
2016-12-20T09:39:06.135Z,0
2016-12-20T09:39:36.665Z,0
2016-12-20T09:40:07.171Z,0
2016-12-20T09:40:37.753Z,0
2016-12-20T09:41:08.338Z,0
2016-12-20T09:41:38.839Z,0
2016-12-20T09:42:09.474Z,0
2016-12-20T09:42:40.010Z,0
2016-12-20T09:43:10.545Z,0
2016-12-20T09:43:41.042Z,0
2016-12-20T09:44:11.592Z,0
2016-12-20T09:44:42.099Z,0
2016-12-20T09:45:12.596Z,0
2016-12-20T09:45:43.098Z,0
2016-12-20T09:46:13.620Z,0
2016-12-20T09:46:44.169Z,0
2016-12-20T09:47:14.659Z,0
2016-12-20T09:47:45.154Z,0
2016-12-20T09:48:15.716Z,0
2016-12-20T09:48:46.345Z,0
2016-12-20T09:49:16.834Z,0
2016-12-20T09:49:47.349Z,0
2016-12-20T09:50:17.846Z,0
2016-12-20T09:50:48.351Z,0
2016-12-20T09:51:18.866Z,0
2016-12-20T09:51:49.358Z,0
2016-12-20T09:52:19.880Z,0
2016-12-20T09:52:50.534Z,0
2016-12-20T09:53:21.017Z,0
2016-12-20T09:53:51.554Z,0
2016-12-20T09:54:22.071Z,0
2016-12-20T09:54:52.583Z,0
2016-12-20T09:55:23.081Z,0
2016-12-20T09:55:53.599Z,0
2016-12-20T09:56:24.132Z,0
2016-12-20T09:56:54.624Z,0
2016-12-20T09:57:25.135Z,0
2016-12-20T09:57:55.615Z,0
2016-12-20T09:58:26.119Z,0
2016-12-20T09:58:56.634Z,0
2016-12-20T09:59:27.149Z,0
2016-12-20T09:59:57.688Z,0
2016-12-20T10:00:28.200Z,0
2016-12-20T10:00:58.737Z,0
2016-12-20T10:01:29.246Z,0
2016-12-20T10:01:59.755Z,0
2016-12-20T10:02:30.262Z,0
2016-12-20T10:03:00.760Z,0
2016-12-20T10:03:31.268Z,0
2016-12-20T10:04:01.790Z,0
2016-12-20T10:04:32.280Z,0
2016-12-20T10:05:02.778Z,0
2016-12-20T10:05:33.431Z,0
2016-12-20T10:06:04.060Z,0
2016-12-20T10:06:34.569Z,0
2016-12-20T10:07:05.058Z,0
2016-12-20T10:07:35.584Z,0
2016-12-20T10:08:06.105Z,0
2016-12-20T10:08:36.630Z,0
2016-12-20T10:09:07.128Z,0
2016-12-20T10:09:37.715Z,0
2016-12-20T10:10:08.281Z,0
2016-12-20T10:10:38.782Z,0
2016-12-20T10:11:09.286Z,0
2016-12-20T10:11:39.804Z,0
2016-12-20T10:12:10.306Z,0
2016-12-20T10:12:40.829Z,0
2016-12-20T10:13:11.341Z,0
2016-12-20T10:13:41.918Z,0
2016-12-20T10:14:12.415Z,0
2016-12-20T10:14:42.956Z,0
2016-12-20T10:15:13.438Z,0
2016-12-20T10:15:43.952Z,0
2016-12-20T10:16:14.464Z,0
2016-12-20T10:16:44.979Z,0
2016-12-20T10:17:15.473Z,0
2016-12-20T10:17:46.071Z,0
2016-12-20T10:18:16.570Z,0
2016-12-20T10:18:47.060Z,0
2016-12-20T10:19:17.556Z,0
2016-12-20T10:19:48.060Z,0
2016-12-20T10:20:18.619Z,0
2016-12-20T10:20:49.227Z,0
2016-12-20T10:21:19.837Z,0
2016-12-20T10:21:50.336Z,0
2016-12-20T10:22:20.834Z,0
2016-12-20T10:22:51.341Z,0
2016-12-20T10:23:21.897Z,0
2016-12-20T10:23:52.404Z,0
2016-12-20T10:24:22.929Z,0
2016-12-20T10:24:53.593Z,0
2016-12-20T10:25:24.111Z,0
2016-12-20T10:25:54.610Z,0
2016-12-20T10:26:25.241Z,0
2016-12-20T10:26:55.750Z,0
2016-12-20T10:27:26.252Z,0
2016-12-20T10:27:56.764Z,0
2016-12-20T10:28:27.273Z,0
2016-12-20T10:28:57.780Z,0
2016-12-20T10:29:28.291Z,0
2016-12-20T10:29:58.777Z,0
2016-12-20T10:30:29.279Z,0
2016-12-20T10:30:59.776Z,0
2016-12-20T10:31:30.405Z,0
2016-12-20T10:32:00.939Z,0
2016-12-20T10:32:31.489Z,0
2016-12-20T10:33:02.009Z,0
2016-12-20T10:33:32.513Z,0
2016-12-20T10:34:03.035Z,0
2016-12-20T10:34:33.560Z,0
2016-12-20T10:35:04.075Z,0
2016-12-20T10:35:34.582Z,0
2016-12-20T10:36:05.110Z,0
2016-12-20T10:36:35.614Z,0
2016-12-20T10:37:06.121Z,0
2016-12-20T10:37:36.635Z,0
2016-12-20T10:38:07.161Z,0
2016-12-20T10:38:37.690Z,0
2016-12-20T10:39:08.220Z,0
2016-12-20T10:39:38.718Z,0
2016-12-20T10:40:09.280Z,0
2016-12-20T10:40:39.877Z,0
2016-12-20T10:41:10.380Z,0
2016-12-20T10:41:40.944Z,0
2016-12-20T10:42:11.456Z,0
2016-12-20T10:42:41.960Z,0
2016-12-20T10:43:12.499Z,0
2016-12-20T10:43:42.997Z,0
2016-12-20T10:44:13.491Z,0
2016-12-20T10:44:44.021Z,0
2016-12-20T10:45:14.528Z,0
2016-12-20T10:45:45.775Z,0
2016-12-20T10:46:16.296Z,0
2016-12-20T10:46:46.841Z,0
2016-12-20T10:47:17.475Z,0
2016-12-20T10:47:47.974Z,0
2016-12-20T10:48:18.483Z,0
2016-12-20T10:48:48.977Z,0
2016-12-20T10:49:19.501Z,0
2016-12-20T10:49:50.020Z,0
2016-12-20T10:50:20.588Z,0
2016-12-20T10:50:51.613Z,0
2016-12-20T10:51:22.042Z,0
2016-12-20T10:51:52.555Z,0
2016-12-20T10:52:23.064Z,0
2016-12-20T10:52:53.599Z,0
2016-12-20T10:53:24.165Z,0
2016-12-20T10:53:54.674Z,0
2016-12-20T10:54:25.232Z,0
2016-12-20T10:54:55.901Z,0
2016-12-20T10:55:26.447Z,0
2016-12-20T10:55:56.959Z,0
2016-12-20T10:56:27.577Z,0
2016-12-20T10:56:58.099Z,0
2016-12-20T10:57:28.658Z,0
2016-12-20T10:57:59.280Z,0
2016-12-20T10:58:29.799Z,0
2016-12-20T10:59:00.389Z,0
2016-12-20T10:59:30.903Z,0
2016-12-20T11:00:01.433Z,0
2016-12-20T11:00:31.968Z,0
2016-12-20T11:01:02.469Z,0
2016-12-20T11:01:32.968Z,0
2016-12-20T11:02:03.515Z,0
2016-12-20T11:02:34.104Z,0
2016-12-20T11:03:04.629Z,0
2016-12-20T11:03:35.140Z,0
2016-12-20T11:04:05.644Z,0
2016-12-20T11:04:36.151Z,0
2016-12-20T11:05:06.668Z,0
2016-12-20T11:05:37.182Z,0
2016-12-20T11:06:07.686Z,0
2016-12-20T11:06:38.220Z,0
2016-12-20T11:07:08.807Z,0
2016-12-20T11:07:39.329Z,0
2016-12-20T11:08:09.819Z,0
2016-12-20T11:08:40.348Z,0
2016-12-20T11:09:10.849Z,0
2016-12-20T11:09:41.356Z,0
2016-12-20T11:10:12.025Z,0
2016-12-20T11:10:42.545Z,0
2016-12-20T11:11:13.068Z,0
2016-12-20T11:11:43.559Z,0
2016-12-20T11:12:14.079Z,0
2016-12-20T11:12:44.644Z,0
2016-12-20T11:13:15.147Z,0
2016-12-20T11:13:45.715Z,0
2016-12-20T11:14:16.427Z,0
2016-12-20T11:14:46.929Z,0
2016-12-20T11:15:17.520Z,0
2016-12-20T11:15:48.059Z,0
2016-12-20T11:16:18.582Z,0
2016-12-20T11:16:49.134Z,0
2016-12-20T11:17:19.601Z,0
2016-12-20T11:17:50.128Z,0
2016-12-20T11:18:20.645Z,0
2016-12-20T11:18:51.151Z,0
2016-12-20T11:19:21.763Z,0
2016-12-20T11:19:52.317Z,0
2016-12-20T11:20:22.833Z,0
2016-12-20T11:20:53.479Z,0
2016-12-20T11:21:23.979Z,0
2016-12-20T11:21:54.486Z,0
2016-12-20T11:22:25.091Z,0
2016-12-20T11:22:55.611Z,0
2016-12-20T11:23:26.125Z,0
2016-12-20T11:23:56.669Z,0
2016-12-20T11:24:27.196Z,0
2016-12-20T11:24:57.822Z,0
2016-12-20T11:25:28.336Z,0
2016-12-20T11:25:58.838Z,0
2016-12-20T11:26:29.447Z,0
2016-12-20T11:26:59.951Z,0
2016-12-20T11:27:30.473Z,0
2016-12-20T11:28:01.001Z,0
2016-12-20T11:28:31.507Z,0
2016-12-20T11:29:02.056Z,0
2016-12-20T11:29:32.577Z,0
2016-12-20T11:30:03.086Z,0
2016-12-20T11:30:33.729Z,0
2016-12-20T11:31:04.267Z,0
2016-12-20T11:31:34.766Z,0
2016-12-20T11:32:05.288Z,0
2016-12-20T11:32:35.925Z,0
2016-12-20T11:33:06.443Z,0
2016-12-20T11:33:36.923Z,0
2016-12-20T11:34:07.455Z,0
2016-12-20T11:34:37.996Z,0
2016-12-20T11:35:08.476Z,0
2016-12-20T11:35:39.010Z,0
2016-12-20T11:36:09.528Z,0
2016-12-20T11:36:40.025Z,0
2016-12-20T11:37:10.517Z,0
2016-12-20T11:37:41.054Z,0
2016-12-20T11:38:11.566Z,0
2016-12-20T11:38:42.140Z,0
2016-12-20T11:39:12.665Z,0
2016-12-20T11:39:43.169Z,0
2016-12-20T11:40:13.689Z,0
2016-12-20T11:40:44.204Z,0
2016-12-20T11:41:14.717Z,0
2016-12-20T11:41:45.309Z,0
2016-12-20T11:42:15.903Z,0
2016-12-20T11:42:46.482Z,0
2016-12-20T11:43:16.982Z,0
2016-12-20T11:43:47.592Z,0
2016-12-20T11:44:18.167Z,0
2016-12-20T11:44:48.678Z,0
2016-12-20T11:45:19.388Z,0
2016-12-20T11:45:49.881Z,0
2016-12-20T11:46:20.407Z,0
2016-12-20T11:46:50.902Z,0
2016-12-20T11:47:21.405Z,0
2016-12-20T11:47:51.939Z,0
2016-12-20T11:48:22.468Z,0
2016-12-20T11:48:52.989Z,0
2016-12-20T11:49:23.538Z,0
2016-12-20T11:49:54.044Z,0
2016-12-20T11:50:24.532Z,0
2016-12-20T11:50:55.069Z,0
2016-12-20T11:51:25.563Z,0
2016-12-20T11:51:56.147Z,0
2016-12-20T11:52:26.673Z,0
2016-12-20T11:52:57.179Z,0
2016-12-20T11:53:27.692Z,0
2016-12-20T11:53:58.222Z,0
2016-12-20T11:54:28.730Z,0
2016-12-20T11:54:59.240Z,0
2016-12-20T11:55:29.828Z,0
2016-12-20T11:56:00.327Z,0
2016-12-20T11:56:30.838Z,0
2016-12-20T11:57:01.358Z,0
2016-12-20T11:57:31.855Z,0
2016-12-20T11:58:02.355Z,0
2016-12-20T11:58:32.890Z,0
2016-12-20T11:59:03.453Z,0
2016-12-20T11:59:33.957Z,0
2016-12-20T12:00:04.455Z,0
2016-12-20T12:00:35.037Z,0
2016-12-20T12:01:05.535Z,0
2016-12-20T12:01:36.076Z,0
2016-12-20T12:02:06.594Z,0
2016-12-20T12:02:37.104Z,0
2016-12-20T12:03:07.708Z,0
2016-12-20T12:03:38.223Z,0
2016-12-20T12:04:08.753Z,0
2016-12-20T12:04:39.266Z,0
2016-12-20T12:05:09.755Z,0
2016-12-20T12:05:40.268Z,0
2016-12-20T12:06:10.789Z,0